createdAt,value
2019-03-28T00:00:17.907Z,8.30
2019-03-28T00:02:48.195Z,8.30
2019-03-28T00:05:18.568Z,8.31
2019-03-28T00:07:48.876Z,8.29
2019-03-28T00:10:19.228Z,8.34
2019-03-28T00:12:49.522Z,8.34
2019-03-28T00:15:19.879Z,8.37
2019-03-28T00:17:50.166Z,8.37
2019-03-28T00:20:20.484Z,8.34
2019-03-28T00:22:55.523Z,8.34
2019-03-28T00:25:25.919Z,8.34
2019-03-28T00:27:56.218Z,8.38
2019-03-28T00:30:26.550Z,8.34
2019-03-28T00:32:56.890Z,8.30
2019-03-28T00:35:27.230Z,8.36
2019-03-28T00:37:57.591Z,8.36
2019-03-28T00:40:27.953Z,8.30
2019-03-28T00:42:58.360Z,8.25
2019-03-28T00:45:28.682Z,8.25
2019-03-28T00:47:59.006Z,8.30
2019-03-28T00:50:29.314Z,8.25
2019-03-28T00:52:59.634Z,8.23
2019-03-28T00:55:29.966Z,8.20
2019-03-28T00:58:00.296Z,8.21
2019-03-28T01:00:30.659Z,8.21
2019-03-28T01:03:00.973Z,8.20
2019-03-28T01:05:31.326Z,8.21
2019-03-28T01:08:01.671Z,8.17
2019-03-28T01:10:32.008Z,8.17
2019-03-28T01:13:02.338Z,8.19
2019-03-28T01:15:32.621Z,8.19
2019-03-28T01:18:02.945Z,8.20
2019-03-28T01:20:33.284Z,8.20
2019-03-28T01:23:03.656Z,8.19
2019-03-28T01:25:33.972Z,8.18
2019-03-28T01:28:04.300Z,8.17
2019-03-28T01:30:34.693Z,8.12
2019-03-28T01:33:05.050Z,8.15
2019-03-28T01:35:35.390Z,8.17
2019-03-28T01:38:05.816Z,8.18
2019-03-28T01:40:36.167Z,8.15
2019-03-28T01:43:06.452Z,8.17
2019-03-28T01:45:36.776Z,8.11
2019-03-28T01:48:07.127Z,8.13
2019-03-28T01:50:37.428Z,8.13
2019-03-28T01:53:07.799Z,8.16
2019-03-28T01:55:38.144Z,8.15
2019-03-28T01:58:08.483Z,8.14
2019-03-28T02:00:38.828Z,8.17
2019-03-28T02:03:09.158Z,8.15
2019-03-28T02:05:39.466Z,8.17
2019-03-28T02:08:09.822Z,8.18
2019-03-28T02:10:40.115Z,8.04
2019-03-28T02:13:10.432Z,8.04
2019-03-28T02:15:40.714Z,8.05
2019-03-28T02:18:11.010Z,8.07
2019-03-28T02:20:41.330Z,8.00
2019-03-28T02:23:11.655Z,8.05
2019-03-28T02:25:41.968Z,8.01
2019-03-28T02:28:12.294Z,8.02
2019-03-28T02:30:42.626Z,8.01
2019-03-28T02:33:12.982Z,8.01
2019-03-28T02:35:43.274Z,7.94
2019-03-28T02:38:13.639Z,7.85
2019-03-28T02:40:43.947Z,7.94
2019-03-28T02:43:14.271Z,7.94
2019-03-28T02:45:44.569Z,7.92
2019-03-28T02:48:14.904Z,7.92
2019-03-28T02:50:45.226Z,7.87
2019-03-28T02:53:15.544Z,7.86
2019-03-28T02:55:45.895Z,7.89
2019-03-28T02:58:16.230Z,7.89
2019-03-28T03:00:47.885Z,7.86
2019-03-28T03:03:16.950Z,7.82
2019-03-28T03:05:47.279Z,7.80
2019-03-28T03:08:17.624Z,7.76
2019-03-28T03:10:47.943Z,7.72
2019-03-28T03:13:19.556Z,7.77
2019-03-28T03:15:48.566Z,7.72
2019-03-28T03:18:21.399Z,7.72
2019-03-28T03:20:49.172Z,7.75
2019-03-28T03:23:20.100Z,7.75
2019-03-28T03:25:49.799Z,7.74
2019-03-28T03:28:20.112Z,7.74
2019-03-28T03:30:50.423Z,7.72
2019-03-28T03:33:20.765Z,7.70
2019-03-28T03:35:51.064Z,7.70
2019-03-28T03:38:21.743Z,7.74
2019-03-28T03:40:51.852Z,7.75
2019-03-28T03:43:23.170Z,7.73
2019-03-28T03:45:52.546Z,7.72
2019-03-28T03:48:22.914Z,7.72
2019-03-28T03:50:53.300Z,7.68
2019-03-28T03:53:23.656Z,7.65
2019-03-28T03:55:53.945Z,7.68
2019-03-28T03:58:24.243Z,7.69
2019-03-28T04:00:54.549Z,7.65
2019-03-28T04:03:24.896Z,7.64
2019-03-28T04:05:55.178Z,7.66
2019-03-28T04:08:26.971Z,7.68
2019-03-28T04:10:55.839Z,7.62
2019-03-28T04:13:26.169Z,7.64
2019-03-28T04:15:56.477Z,7.62
2019-03-28T04:18:26.841Z,7.62
2019-03-28T04:20:57.145Z,7.61
2019-03-28T04:23:27.481Z,7.58
2019-03-28T04:25:57.824Z,7.59
2019-03-28T04:28:31.965Z,7.54
2019-03-28T04:30:59.780Z,7.54
2019-03-28T04:33:30.102Z,7.51
2019-03-28T04:36:00.409Z,7.52
2019-03-28T04:38:30.777Z,7.52
2019-03-28T04:41:01.100Z,7.48
2019-03-28T04:43:31.487Z,7.47
2019-03-28T04:46:01.848Z,7.47
2019-03-28T04:48:32.179Z,7.49
2019-03-28T04:51:02.536Z,7.50
2019-03-28T04:53:32.895Z,7.47
2019-03-28T04:56:03.384Z,7.48
2019-03-28T04:58:43.735Z,7.43
2019-03-28T05:01:04.782Z,7.45
2019-03-28T05:03:35.155Z,7.45
2019-03-28T05:06:05.514Z,7.45
2019-03-28T05:08:35.820Z,7.45
2019-03-28T05:11:06.136Z,7.47
2019-03-28T05:13:36.512Z,7.46
2019-03-28T05:16:06.792Z,7.49
2019-03-28T05:18:37.114Z,7.45
2019-03-28T05:21:07.425Z,7.43
2019-03-28T05:23:37.730Z,7.43
2019-03-28T05:26:08.034Z,7.42
2019-03-28T05:28:38.365Z,7.48
2019-03-28T05:31:08.683Z,7.48
2019-03-28T05:33:39.002Z,7.48
2019-03-28T05:36:09.323Z,7.51
2019-03-28T05:38:39.686Z,7.50
2019-03-28T05:41:10.000Z,7.54
2019-03-28T05:43:40.309Z,7.51
2019-03-28T05:46:10.672Z,7.56
2019-03-28T05:48:41.012Z,7.59
2019-03-28T05:51:11.306Z,7.62
2019-03-28T05:53:44.024Z,7.62
2019-03-28T05:56:12.007Z,7.65
2019-03-28T05:58:42.320Z,7.73
2019-03-28T06:01:12.650Z,7.78
2019-03-28T06:03:43.006Z,7.84
2019-03-28T06:06:13.309Z,7.82
2019-03-28T06:08:43.642Z,7.87
2019-03-28T06:11:13.938Z,8.07
2019-03-28T06:13:44.232Z,8.03
2019-03-28T06:16:14.572Z,7.99
2019-03-28T06:18:44.984Z,7.99
2019-03-28T06:21:15.359Z,8.01
2019-03-28T06:23:45.664Z,8.07
2019-03-28T06:26:16.065Z,8.11
2019-03-28T06:28:46.588Z,8.20
2019-03-28T06:31:16.990Z,8.31
2019-03-28T06:33:47.306Z,8.37
2019-03-28T06:36:17.636Z,8.51
2019-03-28T06:38:47.919Z,8.51
2019-03-28T06:41:18.296Z,8.73
2019-03-28T06:43:48.726Z,8.73
2019-03-28T06:46:19.137Z,8.82
2019-03-28T06:48:49.438Z,8.82
2019-03-28T06:51:19.792Z,8.89
2019-03-28T06:53:50.174Z,8.88
2019-03-28T06:56:20.476Z,8.92
2019-03-28T06:58:50.866Z,8.92
2019-03-28T07:01:21.527Z,8.85
2019-03-28T07:03:51.811Z,8.85
2019-03-28T07:06:22.172Z,8.81
2019-03-28T07:08:52.562Z,8.76
2019-03-28T07:11:22.929Z,8.78
2019-03-28T07:13:53.277Z,8.78
2019-03-28T07:16:23.674Z,8.88
2019-03-28T07:18:54.000Z,8.77
2019-03-28T07:21:24.327Z,8.77
2019-03-28T07:23:54.718Z,8.87
2019-03-28T07:26:25.636Z,8.87
2019-03-28T07:28:55.424Z,8.92
2019-03-28T07:31:25.752Z,8.82
2019-03-28T07:33:56.118Z,8.89
2019-03-28T07:36:26.473Z,7.78
2019-03-28T07:38:56.783Z,9.23
2019-03-28T07:41:27.132Z,9.63
2019-03-28T07:43:57.528Z,9.63
2019-03-28T07:46:27.853Z,9.73
2019-03-28T07:48:58.144Z,9.76
2019-03-28T07:51:28.824Z,9.82
2019-03-28T07:53:59.140Z,9.96
2019-03-28T07:56:29.471Z,10.16
2019-03-28T07:58:59.791Z,9.95
2019-03-28T08:01:30.108Z,10.02
2019-03-28T08:04:00.513Z,10.01
2019-03-28T08:06:30.886Z,10.14
2019-03-28T08:09:01.286Z,10.19
2019-03-28T08:11:31.766Z,10.58
2019-03-28T08:14:01.929Z,10.59
2019-03-28T08:16:32.266Z,10.91
2019-03-28T08:19:02.682Z,10.84
2019-03-28T08:21:32.973Z,10.89
2019-03-28T08:24:03.335Z,11.28
2019-03-28T08:26:33.690Z,11.34
2019-03-28T08:29:04.088Z,11.25
2019-03-28T08:31:34.440Z,11.40
2019-03-28T08:34:04.735Z,11.25
2019-03-28T08:36:35.092Z,11.04
2019-03-28T08:39:06.831Z,11.32
2019-03-28T08:41:37.157Z,11.18
2019-03-28T08:44:07.576Z,11.50
2019-03-28T08:46:37.996Z,11.98
2019-03-28T08:49:08.323Z,12.07
2019-03-28T08:51:38.668Z,12.01
2019-03-28T08:54:08.978Z,12.24
2019-03-28T08:56:39.337Z,12.47
2019-03-28T08:59:09.664Z,12.67
2019-03-28T09:01:40.196Z,13.05
2019-03-28T09:04:10.372Z,13.11
2019-03-28T09:06:40.734Z,12.72
2019-03-28T09:09:11.088Z,12.62
2019-03-28T09:11:41.530Z,13.04
2019-03-28T09:14:11.931Z,12.92
2019-03-28T09:16:42.312Z,12.95
2019-03-28T09:19:12.616Z,12.53
2019-03-28T09:21:43.010Z,13.06
2019-03-28T09:24:13.411Z,12.67
2019-03-28T09:26:43.742Z,12.63
2019-03-28T09:29:14.152Z,12.99
2019-03-28T09:31:44.504Z,13.34
2019-03-28T09:34:14.806Z,13.23
2019-03-28T09:36:45.100Z,13.50
2019-03-28T09:39:15.410Z,13.92
2019-03-28T09:41:45.839Z,14.30
2019-03-28T09:44:16.169Z,14.36
2019-03-28T09:46:46.518Z,13.66
2019-03-28T09:49:16.852Z,13.91
2019-03-28T09:51:47.176Z,14.06
2019-03-28T09:54:17.731Z,14.25
2019-03-28T09:56:48.122Z,14.17
2019-03-28T09:59:18.445Z,13.24
2019-03-28T10:01:48.776Z,13.50
2019-03-28T10:04:19.135Z,13.30
2019-03-28T10:06:49.438Z,13.50
2019-03-28T10:09:19.868Z,13.55
2019-03-28T10:11:50.174Z,13.19
2019-03-28T10:14:20.470Z,12.95
2019-03-28T10:16:50.824Z,12.96
2019-03-28T10:19:21.134Z,12.99
2019-03-28T10:21:51.486Z,13.90
2019-03-28T10:24:21.812Z,14.25
2019-03-28T10:26:52.136Z,13.97
2019-03-28T10:29:22.478Z,14.09
2019-03-28T10:31:52.748Z,14.76
2019-03-28T10:34:23.124Z,14.42
2019-03-28T10:36:53.436Z,14.36
2019-03-28T10:39:23.740Z,14.00
2019-03-28T10:41:54.879Z,14.01
2019-03-28T10:44:24.388Z,13.37
2019-03-28T10:46:54.732Z,13.09
2019-03-28T10:49:25.050Z,13.18
2019-03-28T10:51:55.375Z,12.80
2019-03-28T10:54:25.970Z,12.77
2019-03-28T10:56:57.981Z,13.38
2019-03-28T10:59:26.380Z,13.90
2019-03-28T11:01:56.712Z,13.95
2019-03-28T11:04:27.130Z,14.27
2019-03-28T11:06:58.506Z,13.79
2019-03-28T11:09:27.782Z,13.76
2019-03-28T11:11:58.075Z,14.11
2019-03-28T11:14:28.425Z,14.38
2019-03-28T11:16:58.941Z,14.02
2019-03-28T11:19:29.252Z,14.00
2019-03-28T11:21:59.500Z,13.77
2019-03-28T11:24:29.802Z,13.56
2019-03-28T11:27:00.148Z,13.68
2019-03-28T11:29:30.587Z,13.58
2019-03-28T11:32:00.878Z,13.56
2019-03-28T11:34:31.179Z,13.50
2019-03-28T11:37:01.540Z,13.32
2019-03-28T11:39:31.880Z,13.00
2019-03-28T11:42:02.267Z,12.83
2019-03-28T11:44:32.564Z,12.90
2019-03-28T11:47:02.952Z,12.80
2019-03-28T11:49:33.314Z,12.96
2019-03-28T11:52:03.629Z,12.95
2019-03-28T11:54:33.958Z,12.97
2019-03-28T11:57:04.268Z,12.84
2019-03-28T11:59:34.692Z,12.82
2019-03-28T12:02:19.103Z,12.78
2019-03-28T12:04:38.545Z,12.70
2019-03-28T12:07:05.737Z,12.65
2019-03-28T12:09:36.102Z,12.77
2019-03-28T12:12:06.526Z,12.96
2019-03-28T12:14:36.845Z,13.08
2019-03-28T12:17:07.192Z,13.13
2019-03-28T12:19:37.471Z,13.00
2019-03-28T12:22:07.756Z,13.23
2019-03-28T12:24:38.082Z,13.07
2019-03-28T12:27:08.443Z,13.09
2019-03-28T12:29:38.781Z,13.04
2019-03-28T12:32:14.329Z,13.11
2019-03-28T12:34:39.454Z,12.91
2019-03-28T12:37:10.812Z,12.97
2019-03-28T12:39:40.216Z,13.01
2019-03-28T12:42:10.498Z,13.00
2019-03-28T12:44:40.856Z,12.85
2019-03-28T12:47:11.433Z,12.89
2019-03-28T12:49:41.733Z,12.92
2019-03-28T12:52:12.021Z,12.98
2019-03-28T12:54:44.214Z,12.78
2019-03-28T12:57:14.427Z,12.69
2019-03-28T12:59:42.997Z,12.66
2019-03-28T13:02:26.924Z,12.61
2019-03-28T13:04:43.778Z,12.63
2019-03-28T13:07:14.104Z,12.60
2019-03-28T13:09:44.444Z,12.52
2019-03-28T13:12:14.803Z,12.58
2019-03-28T13:14:45.119Z,12.60
2019-03-28T13:17:15.484Z,12.71
2019-03-28T13:19:45.806Z,12.59
2019-03-28T13:22:16.137Z,12.85
2019-03-28T13:24:46.554Z,12.98
2019-03-28T13:27:16.866Z,13.06
2019-03-28T13:29:47.163Z,12.97
2019-03-28T13:32:17.482Z,12.92
2019-03-28T13:34:47.825Z,12.78
2019-03-28T13:37:18.129Z,13.04
2019-03-28T13:39:48.473Z,13.12
2019-03-28T13:42:18.792Z,13.44
2019-03-28T13:44:49.353Z,13.38
2019-03-28T13:47:19.739Z,13.60
2019-03-28T13:49:50.074Z,13.54
2019-03-28T13:52:20.403Z,13.42
2019-03-28T13:54:53.050Z,13.45
2019-03-28T13:57:21.664Z,13.37
2019-03-28T13:59:51.395Z,13.41
2019-03-28T14:02:21.666Z,13.30
2019-03-28T14:04:51.941Z,13.12
2019-03-28T14:07:22.838Z,12.91
2019-03-28T14:09:52.580Z,12.96
2019-03-28T14:12:23.450Z,12.96
2019-03-28T14:14:53.229Z,12.97
2019-03-28T14:17:23.513Z,12.89
2019-03-28T14:19:53.782Z,13.03
2019-03-28T14:22:24.052Z,12.95
2019-03-28T14:24:54.338Z,12.93
2019-03-28T14:27:24.625Z,13.05
2019-03-28T14:29:54.969Z,13.03
2019-03-28T14:32:25.232Z,13.00
2019-03-28T14:34:55.586Z,13.03
2019-03-28T14:37:25.860Z,12.85
2019-03-28T14:39:56.218Z,12.75
2019-03-28T14:42:26.497Z,12.73
2019-03-28T14:44:56.815Z,12.61
2019-03-28T14:47:27.139Z,12.55
2019-03-28T14:49:57.581Z,12.53
2019-03-28T14:52:27.698Z,12.29
2019-03-28T14:55:01.313Z,12.18
2019-03-28T14:57:28.384Z,12.19
2019-03-28T14:59:59.138Z,12.29
2019-03-28T15:02:29.086Z,12.26
2019-03-28T15:04:59.336Z,12.33
2019-03-28T15:07:29.634Z,12.41
2019-03-28T15:09:59.914Z,12.52
2019-03-28T15:12:30.229Z,12.65
2019-03-28T15:15:00.603Z,12.63
2019-03-28T15:17:30.886Z,12.68
2019-03-28T15:20:01.252Z,12.88
2019-03-28T15:22:31.571Z,12.87
2019-03-28T15:25:01.918Z,12.92
2019-03-28T15:27:32.206Z,12.97
2019-03-28T15:30:02.524Z,12.84
2019-03-28T15:32:32.909Z,12.78
2019-03-28T15:35:03.201Z,12.96
2019-03-28T15:37:33.486Z,12.97
2019-03-28T15:40:04.074Z,12.99
2019-03-28T15:42:34.379Z,13.01
2019-03-28T15:45:04.820Z,13.03
2019-03-28T15:47:35.205Z,12.98
2019-03-28T15:50:05.687Z,12.90
2019-03-28T15:52:35.972Z,12.81
2019-03-28T15:55:07.539Z,12.85
2019-03-28T15:57:36.802Z,12.88
2019-03-28T16:00:07.390Z,12.70
2019-03-28T16:02:37.824Z,12.61
2019-03-28T16:05:08.085Z,12.53
2019-03-28T16:07:38.482Z,12.37
2019-03-28T16:10:09.121Z,12.31
2019-03-28T16:12:39.419Z,12.15
2019-03-28T16:15:09.725Z,12.11
2019-03-28T16:17:40.208Z,12.07
2019-03-28T16:20:10.478Z,12.03
2019-03-28T16:22:40.890Z,11.95
2019-03-28T16:25:11.218Z,11.96
2019-03-28T16:27:41.586Z,11.94
2019-03-28T16:30:12.038Z,11.97
2019-03-28T16:32:42.434Z,11.94
2019-03-28T16:35:12.768Z,11.95
2019-03-28T16:37:43.076Z,11.92
2019-03-28T16:40:13.396Z,11.84
2019-03-28T16:42:43.688Z,11.85
2019-03-28T16:45:14.047Z,11.79
2019-03-28T16:47:44.384Z,11.82
2019-03-28T16:50:14.928Z,11.82
2019-03-28T16:52:48.112Z,11.82
2019-03-28T16:55:25.791Z,11.84
2019-03-28T16:57:46.071Z,11.82
2019-03-28T17:00:16.472Z,11.82
2019-03-28T17:02:46.780Z,11.80
2019-03-28T17:05:17.146Z,11.77
2019-03-28T17:07:47.498Z,11.74
2019-03-28T17:10:46.778Z,11.69
2019-03-28T17:13:17.200Z,11.69
2019-03-28T17:15:47.492Z,11.70
2019-03-28T17:18:18.875Z,11.67
2019-03-28T17:20:48.176Z,11.65
2019-03-28T17:23:18.682Z,11.67
2019-03-28T17:25:49.196Z,11.62
2019-03-28T17:28:19.479Z,11.55
2019-03-28T17:30:49.752Z,11.52
2019-03-28T17:33:20.155Z,11.50
2019-03-28T17:35:50.460Z,11.46
2019-03-28T17:38:20.810Z,11.45
2019-03-28T17:40:51.084Z,11.42
2019-03-28T17:43:21.401Z,11.45
2019-03-28T17:45:56.605Z,11.45
2019-03-28T17:48:28.515Z,11.40
2019-03-28T17:50:57.388Z,11.41
2019-03-28T17:53:27.754Z,11.37
2019-03-28T17:55:58.280Z,11.33
2019-03-28T17:58:28.614Z,11.30
2019-03-28T18:00:58.862Z,11.29
2019-03-28T18:03:31.508Z,11.24
2019-03-28T18:05:59.624Z,11.21
2019-03-28T18:08:29.920Z,11.20
2019-03-28T18:11:00.557Z,11.16
2019-03-28T18:13:31.304Z,11.13
2019-03-28T18:16:00.877Z,11.10
2019-03-28T18:18:31.215Z,11.11
2019-03-28T18:21:01.626Z,11.10
2019-03-28T18:23:31.971Z,11.08
2019-03-28T18:26:02.279Z,11.07
2019-03-28T18:28:32.691Z,11.05
2019-03-28T18:31:02.868Z,11.05
2019-03-28T18:33:33.366Z,11.04
2019-03-28T18:36:03.716Z,11.01
2019-03-28T18:38:34.041Z,10.99
2019-03-28T18:41:04.342Z,10.98
2019-03-28T18:43:34.648Z,10.96
2019-03-28T18:46:05.312Z,10.95
2019-03-28T18:48:36.563Z,10.92
2019-03-28T18:51:08.256Z,10.90
2019-03-28T18:53:38.556Z,10.90
2019-03-28T18:56:08.962Z,10.88
2019-03-28T18:58:39.264Z,10.83
2019-03-28T19:01:09.594Z,10.82
2019-03-28T19:03:42.999Z,10.80
2019-03-28T19:06:10.586Z,10.78
2019-03-28T19:08:40.912Z,10.77
2019-03-28T19:11:11.290Z,10.79
2019-03-28T19:13:41.664Z,10.79
2019-03-28T19:16:12.030Z,10.79
2019-03-28T19:18:42.378Z,10.76
2019-03-28T19:21:12.814Z,10.78
2019-03-28T19:23:43.299Z,10.75
2019-03-28T19:26:13.637Z,10.76
2019-03-28T19:28:44.140Z,10.75
2019-03-28T19:31:14.605Z,10.75
2019-03-28T19:33:44.950Z,10.74
2019-03-28T19:36:15.559Z,10.74
2019-03-28T19:38:45.859Z,10.75
2019-03-28T19:41:17.060Z,10.76
2019-03-28T19:43:47.493Z,10.78
2019-03-28T19:46:17.804Z,10.80
2019-03-28T19:48:48.164Z,10.84
2019-03-28T19:51:18.559Z,10.85
2019-03-28T19:53:48.873Z,10.85
2019-03-28T19:56:19.142Z,10.86
2019-03-28T19:58:49.477Z,10.86
2019-03-28T20:01:19.968Z,10.85
2019-03-28T20:03:52.383Z,10.81
2019-03-28T20:06:22.473Z,10.79
2019-03-28T20:08:51.022Z,10.77
2019-03-28T20:11:21.593Z,10.76
2019-03-28T20:13:51.712Z,10.75
2019-03-28T20:16:22.036Z,10.75
2019-03-28T20:18:52.427Z,10.77
2019-03-28T20:21:23.023Z,10.78
2019-03-28T20:23:56.522Z,10.80
2019-03-28T20:26:23.712Z,10.82
2019-03-28T20:28:54.022Z,10.82
2019-03-28T20:31:25.341Z,10.79
2019-03-28T20:33:55.666Z,10.76
2019-03-28T20:36:37.445Z,10.75
2019-03-28T20:39:03.718Z,10.75
2019-03-28T20:41:26.774Z,10.74
2019-03-28T20:43:57.098Z,10.71
2019-03-28T20:46:28.343Z,10.68
2019-03-28T20:48:57.863Z,10.65
2019-03-28T20:51:28.238Z,10.64
2019-03-28T20:54:00.791Z,10.63
2019-03-28T20:56:31.102Z,10.63
2019-03-28T20:59:01.513Z,10.62
2019-03-28T21:01:31.837Z,10.61
2019-03-28T21:04:02.474Z,10.57
2019-03-28T21:06:32.799Z,10.54
2019-03-28T21:09:03.374Z,10.51
2019-03-28T21:11:33.678Z,10.49
2019-03-28T21:14:06.932Z,10.47
2019-03-28T21:16:38.127Z,10.47
2019-03-28T21:19:07.666Z,10.47
2019-03-28T21:21:37.990Z,10.45
2019-03-28T21:24:10.840Z,10.45
2019-03-28T21:26:41.326Z,10.44
2019-03-28T21:29:11.477Z,10.43
2019-03-28T21:31:49.873Z,10.42
2019-03-28T21:34:12.228Z,10.40
2019-03-28T21:36:42.500Z,10.39
2019-03-28T21:39:12.799Z,10.37
2019-03-28T21:41:43.156Z,10.36
2019-03-28T21:44:13.582Z,10.36
2019-03-28T21:46:43.988Z,10.18
2019-03-28T21:49:14.408Z,10.36
2019-03-28T21:51:46.058Z,10.35
2019-03-28T21:54:15.347Z,10.35
2019-03-28T21:56:45.844Z,10.34
2019-03-28T21:59:17.689Z,10.36
2019-03-28T22:01:46.507Z,10.35
2019-03-28T22:04:16.862Z,10.35
2019-03-28T22:06:47.150Z,10.35
2019-03-28T22:09:19.701Z,10.35
2019-03-28T22:11:47.821Z,10.34
2019-03-28T22:14:18.349Z,10.33
2019-03-28T22:16:49.783Z,10.33
2019-03-28T22:19:19.097Z,10.32
2019-03-28T22:21:49.375Z,10.30
2019-03-28T22:24:19.647Z,10.29
2019-03-28T22:26:49.938Z,10.28
2019-03-28T22:29:20.886Z,10.29
2019-03-28T22:31:50.669Z,10.28
2019-03-28T22:34:21.017Z,10.27
2019-03-28T22:36:57.255Z,10.26
2019-03-28T22:39:21.680Z,10.26
2019-03-28T22:41:52.019Z,10.25
2019-03-28T22:44:22.358Z,10.24
2019-03-28T22:46:52.698Z,10.24
2019-03-28T22:49:23.029Z,10.24
2019-03-28T22:51:53.423Z,10.23
2019-03-28T22:54:23.890Z,10.23
2019-03-28T22:56:54.226Z,10.24
2019-03-28T22:59:24.550Z,10.22
2019-03-28T23:01:54.954Z,10.19
2019-03-28T23:04:25.262Z,10.20
2019-03-28T23:06:55.618Z,10.18
2019-03-28T23:09:25.939Z,10.18
2019-03-28T23:11:56.253Z,10.19
2019-03-28T23:14:26.582Z,10.18
2019-03-28T23:16:56.898Z,10.18
2019-03-28T23:19:27.204Z,10.17
2019-03-28T23:21:57.501Z,10.16
2019-03-28T23:24:27.786Z,10.16
2019-03-28T23:26:58.127Z,10.16
2019-03-28T23:29:28.401Z,10.16
2019-03-28T23:31:58.715Z,10.16
2019-03-28T23:34:29.036Z,10.14
2019-03-28T23:36:59.321Z,10.14
2019-03-28T23:39:29.668Z,10.12
2019-03-28T23:41:59.999Z,10.11
2019-03-28T23:44:30.266Z,10.10
2019-03-28T23:47:00.591Z,10.06
2019-03-28T23:49:30.903Z,10.08
2019-03-28T23:52:01.189Z,10.09
2019-03-28T23:54:31.473Z,10.09
2019-03-28T23:57:02.970Z,10.07
2019-03-28T23:59:32.119Z,10.08
